sensor_id;sensor_type;location;lat;lon;timestamp;temperature;humidity
15481;DHT22;7842;50.904;6.670;2022-09-01T00:01:56;18.60;99.90
15481;DHT22;7842;50.904;6.670;2022-09-01T00:04:24;18.50;99.90
15481;DHT22;7842;50.904;6.670;2022-09-01T00:06:53;18.50;99.90
15481;DHT22;7842;50.904;6.670;2022-09-01T00:09:21;18.50;99.90
15481;DHT22;7842;50.904;6.670;2022-09-01T00:11:50;18.50;99.90
15481;DHT22;7842;50.904;6.670;2022-09-01T00:14:20;18.40;99.90
15481;DHT22;7842;50.904;6.670;2022-09-01T00:16:46;18.40;99.90
15481;DHT22;7842;50.904;6.670;2022-09-01T00:19:12;18.40;99.90
15481;DHT22;7842;50.904;6.670;2022-09-01T00:21:41;18.30;99.90
15481;DHT22;7842;50.904;6.670;2022-09-01T00:24:07;18.30;99.90
15481;DHT22;7842;50.904;6.670;2022-09-01T00:26:34;18.30;99.90
15481;DHT22;7842;50.904;6.670;2022-09-01T00:28:59;18.20;99.90
15481;DHT22;7842;50.904;6.670;2022-09-01T00:31:26;18.20;99.90
15481;DHT22;7842;50.904;6.670;2022-09-01T00:33:52;18.20;99.90
15481;DHT22;7842;50.904;6.670;2022-09-01T00:36:18;18.20;99.90
15481;DHT22;7842;50.904;6.670;2022-09-01T00:38:44;18.10;99.90
15481;DHT22;7842;50.904;6.670;2022-09-01T00:41:10;18.10;99.90
15481;DHT22;7842;50.904;6.670;2022-09-01T00:43:53;18.00;99.90
15481;DHT22;7842;50.904;6.670;2022-09-01T00:46:27;18.00;99.90
15481;DHT22;7842;50.904;6.670;2022-09-01T00:49:00;17.90;99.90
15481;DHT22;7842;50.904;6.670;2022-09-01T00:51:28;17.90;99.90
15481;DHT22;7842;50.904;6.670;2022-09-01T00:53:54;17.90;99.90
15481;DHT22;7842;50.904;6.670;2022-09-01T00:56:21;17.90;99.90
15481;DHT22;7842;50.904;6.670;2022-09-01T00:58:48;17.90;99.90
15481;DHT22;7842;50.904;6.670;2022-09-01T01:01:14;17.90;99.90
15481;DHT22;7842;50.904;6.670;2022-09-01T01:03:41;18.00;99.90
15481;DHT22;7842;50.904;6.670;2022-09-01T01:06:10;18.00;99.90
15481;DHT22;7842;50.904;6.670;2022-09-01T01:08:40;18.00;99.90
15481;DHT22;7842;50.904;6.670;2022-09-01T01:11:10;18.00;99.90
15481;DHT22;7842;50.904;6.670;2022-09-01T01:13:57;18.00;99.90
15481;DHT22;7842;50.904;6.670;2022-09-01T01:16:26;18.00;99.90
15481;DHT22;7842;50.904;6.670;2022-09-01T01:18:52;18.00;99.90
15481;DHT22;7842;50.904;6.670;2022-09-01T01:21:28;18.00;99.90
15481;DHT22;7842;50.904;6.670;2022-09-01T01:24:25;18.00;99.90
15481;DHT22;7842;50.904;6.670;2022-09-01T01:26:52;18.00;99.90
15481;DHT22;7842;50.904;6.670;2022-09-01T01:29:19;18.00;99.90
15481;DHT22;7842;50.904;6.670;2022-09-01T01:31:46;18.00;99.90
15481;DHT22;7842;50.904;6.670;2022-09-01T01:34:18;17.90;99.90
15481;DHT22;7842;50.904;6.670;2022-09-01T01:36:45;17.90;99.90
15481;DHT22;7842;50.904;6.670;2022-09-01T01:39:16;17.90;99.90
15481;DHT22;7842;50.904;6.670;2022-09-01T01:41:43;17.90;99.90
15481;DHT22;7842;50.904;6.670;2022-09-01T01:44:14;17.80;99.90
15481;DHT22;7842;50.904;6.670;2022-09-01T01:46:43;17.80;99.90
15481;DHT22;7842;50.904;6.670;2022-09-01T01:49:10;17.70;99.90
15481;DHT22;7842;50.904;6.670;2022-09-01T01:51:38;17.70;99.90
15481;DHT22;7842;50.904;6.670;2022-09-01T01:54:04;17.70;99.90
15481;DHT22;7842;50.904;6.670;2022-09-01T01:56:31;17.70;99.90
15481;DHT22;7842;50.904;6.670;2022-09-01T01:58:57;17.70;99.90
15481;DHT22;7842;50.904;6.670;2022-09-01T02:01:28;17.60;99.90
15481;DHT22;7842;50.904;6.670;2022-09-01T02:03:57;17.60;99.90
15481;DHT22;7842;50.904;6.670;2022-09-01T02:06:24;17.50;99.90
15481;DHT22;7842;50.904;6.670;2022-09-01T02:08:51;17.50;99.90
15481;DHT22;7842;50.904;6.670;2022-09-01T02:11:21;17.40;99.90
15481;DHT22;7842;50.904;6.670;2022-09-01T02:13:47;17.40;99.90
15481;DHT22;7842;50.904;6.670;2022-09-01T02:16:14;17.30;99.90
15481;DHT22;7842;50.904;6.670;2022-09-01T02:18:45;17.30;99.90
15481;DHT22;7842;50.904;6.670;2022-09-01T02:21:14;17.20;99.90
15481;DHT22;7842;50.904;6.670;2022-09-01T02:23:48;17.20;99.90
15481;DHT22;7842;50.904;6.670;2022-09-01T02:26:14;17.20;99.90
15481;DHT22;7842;50.904;6.670;2022-09-01T02:28:42;17.20;99.90
15481;DHT22;7842;50.904;6.670;2022-09-01T02:31:09;17.20;99.90
15481;DHT22;7842;50.904;6.670;2022-09-01T02:33:36;17.20;99.90
15481;DHT22;7842;50.904;6.670;2022-09-01T02:36:06;17.20;99.90
15481;DHT22;7842;50.904;6.670;2022-09-01T02:38:32;17.20;99.90
15481;DHT22;7842;50.904;6.670;2022-09-01T02:41:00;17.10;99.90
15481;DHT22;7842;50.904;6.670;2022-09-01T02:43:27;17.10;99.90
15481;DHT22;7842;50.904;6.670;2022-09-01T02:45:55;17.00;99.90
15481;DHT22;7842;50.904;6.670;2022-09-01T02:48:26;17.20;99.90
15481;DHT22;7842;50.904;6.670;2022-09-01T02:51:00;17.00;99.90
15481;DHT22;7842;50.904;6.670;2022-09-01T02:53:30;17.00;99.90
15481;DHT22;7842;50.904;6.670;2022-09-01T02:55:56;17.00;99.90
15481;DHT22;7842;50.904;6.670;2022-09-01T02:58:25;17.00;99.90
15481;DHT22;7842;50.904;6.670;2022-09-01T03:00:52;17.00;99.90
15481;DHT22;7842;50.904;6.670;2022-09-01T03:03:19;16.90;99.90
15481;DHT22;7842;50.904;6.670;2022-09-01T03:05:47;16.90;99.90
15481;DHT22;7842;50.904;6.670;2022-09-01T03:08:18;16.90;99.90
15481;DHT22;7842;50.904;6.670;2022-09-01T03:10:44;16.90;99.90
15481;DHT22;7842;50.904;6.670;2022-09-01T03:13:17;16.80;99.90
15481;DHT22;7842;50.904;6.670;2022-09-01T03:15:45;16.80;99.90
15481;DHT22;7842;50.904;6.670;2022-09-01T03:18:12;16.90;99.90
15481;DHT22;7842;50.904;6.670;2022-09-01T03:20:40;16.90;99.90
15481;DHT22;7842;50.904;6.670;2022-09-01T03:23:09;16.90;99.90
15481;DHT22;7842;50.904;6.670;2022-09-01T03:25:37;16.90;99.90
15481;DHT22;7842;50.904;6.670;2022-09-01T03:28:04;16.90;99.90
15481;DHT22;7842;50.904;6.670;2022-09-01T03:30:31;16.90;99.90
15481;DHT22;7842;50.904;6.670;2022-09-01T03:32:57;17.00;99.90
15481;DHT22;7842;50.904;6.670;2022-09-01T03:35:25;16.90;99.90
15481;DHT22;7842;50.904;6.670;2022-09-01T03:37:53;16.90;99.90
15481;DHT22;7842;50.904;6.670;2022-09-01T03:40:20;16.80;99.90
15481;DHT22;7842;50.904;6.670;2022-09-01T03:42:46;16.90;99.90
15481;DHT22;7842;50.904;6.670;2022-09-01T03:45:12;16.90;99.90
15481;DHT22;7842;50.904;6.670;2022-09-01T03:47:43;16.90;99.90
15481;DHT22;7842;50.904;6.670;2022-09-01T03:50:12;16.90;99.90
15481;DHT22;7842;50.904;6.670;2022-09-01T03:52:55;16.80;99.90
15481;DHT22;7842;50.904;6.670;2022-09-01T03:55:25;16.80;99.90
15481;DHT22;7842;50.904;6.670;2022-09-01T03:58:00;16.70;99.90
15481;DHT22;7842;50.904;6.670;2022-09-01T04:00:34;16.70;99.90
15481;DHT22;7842;50.904;6.670;2022-09-01T04:03:01;16.70;99.90
15481;DHT22;7842;50.904;6.670;2022-09-01T04:05:29;16.70;99.90
15481;DHT22;7842;50.904;6.670;2022-09-01T04:07:57;16.60;99.90
15481;DHT22;7842;50.904;6.670;2022-09-01T04:10:26;16.50;99.90
15481;DHT22;7842;50.904;6.670;2022-09-01T04:12:52;16.50;99.90
15481;DHT22;7842;50.904;6.670;2022-09-01T04:15:21;16.50;99.90
15481;DHT22;7842;50.904;6.670;2022-09-01T04:17:46;16.50;99.90
15481;DHT22;7842;50.904;6.670;2022-09-01T04:20:31;16.40;99.90
15481;DHT22;7842;50.904;6.670;2022-09-01T04:23:05;16.40;99.90
15481;DHT22;7842;50.904;6.670;2022-09-01T04:25:36;16.40;99.90
15481;DHT22;7842;50.904;6.670;2022-09-01T04:28:04;16.40;99.90
15481;DHT22;7842;50.904;6.670;2022-09-01T04:30:39;16.40;99.90
15481;DHT22;7842;50.904;6.670;2022-09-01T04:33:07;16.30;99.90
15481;DHT22;7842;50.904;6.670;2022-09-01T04:35:38;16.30;99.90
15481;DHT22;7842;50.904;6.670;2022-09-01T04:38:04;16.20;99.90
15481;DHT22;7842;50.904;6.670;2022-09-01T04:40:37;16.20;99.90
15481;DHT22;7842;50.904;6.670;2022-09-01T04:43:04;16.20;99.90
15481;DHT22;7842;50.904;6.670;2022-09-01T04:45:30;16.20;99.90
15481;DHT22;7842;50.904;6.670;2022-09-01T04:47:56;16.20;99.90
15481;DHT22;7842;50.904;6.670;2022-09-01T04:50:25;16.10;99.90
15481;DHT22;7842;50.904;6.670;2022-09-01T04:52:51;16.10;99.90
15481;DHT22;7842;50.904;6.670;2022-09-01T04:55:19;16.10;99.90
15481;DHT22;7842;50.904;6.670;2022-09-01T04:57:47;16.00;99.90
15481;DHT22;7842;50.904;6.670;2022-09-01T05:00:19;16.00;99.90
15481;DHT22;7842;50.904;6.670;2022-09-01T05:02:54;15.90;99.90
15481;DHT22;7842;50.904;6.670;2022-09-01T05:05:25;16.00;99.90
15481;DHT22;7842;50.904;6.670;2022-09-01T05:07:51;16.00;99.90
15481;DHT22;7842;50.904;6.670;2022-09-01T05:10:18;16.00;99.90
15481;DHT22;7842;50.904;6.670;2022-09-01T05:12:44;16.10;99.90
15481;DHT22;7842;50.904;6.670;2022-09-01T05:15:11;16.20;99.90
15481;DHT22;7842;50.904;6.670;2022-09-01T05:17:38;16.90;99.90
15481;DHT22;7842;50.904;6.670;2022-09-01T05:20:05;17.50;99.90
15481;DHT22;7842;50.904;6.670;2022-09-01T05:22:32;17.80;99.90
15481;DHT22;7842;50.904;6.670;2022-09-01T05:24:58;18.00;99.90
15481;DHT22;7842;50.904;6.670;2022-09-01T05:27:29;17.90;99.90
15481;DHT22;7842;50.904;6.670;2022-09-01T05:29:55;17.80;99.90
15481;DHT22;7842;50.904;6.670;2022-09-01T05:32:24;18.20;99.90
15481;DHT22;7842;50.904;6.670;2022-09-01T05:34:51;18.70;99.90
15481;DHT22;7842;50.904;6.670;2022-09-01T05:37:18;18.80;99.90
15481;DHT22;7842;50.904;6.670;2022-09-01T05:39:45;19.60;99.90
15481;DHT22;7842;50.904;6.670;2022-09-01T05:42:10;20.50;99.90
15481;DHT22;7842;50.904;6.670;2022-09-01T05:44:38;21.20;99.90
15481;DHT22;7842;50.904;6.670;2022-09-01T05:47:08;21.80;99.90
15481;DHT22;7842;50.904;6.670;2022-09-01T05:49:36;22.30;99.90
15481;DHT22;7842;50.904;6.670;2022-09-01T05:52:04;22.70;99.90
15481;DHT22;7842;50.904;6.670;2022-09-01T05:54:33;23.10;99.90
15481;DHT22;7842;50.904;6.670;2022-09-01T05:56:59;23.50;99.90
15481;DHT22;7842;50.904;6.670;2022-09-01T05:59:26;23.80;99.90
15481;DHT22;7842;50.904;6.670;2022-09-01T06:01:55;24.00;99.90
15481;DHT22;7842;50.904;6.670;2022-09-01T06:04:22;24.40;99.90
15481;DHT22;7842;50.904;6.670;2022-09-01T06:06:50;24.60;99.90
15481;DHT22;7842;50.904;6.670;2022-09-01T06:09:18;24.80;99.90
15481;DHT22;7842;50.904;6.670;2022-09-01T06:11:46;24.80;99.90
15481;DHT22;7842;50.904;6.670;2022-09-01T06:14:14;24.80;99.90
15481;DHT22;7842;50.904;6.670;2022-09-01T06:16:40;24.40;99.90
15481;DHT22;7842;50.904;6.670;2022-09-01T06:19:06;24.60;99.90
15481;DHT22;7842;50.904;6.670;2022-09-01T06:21:32;24.70;99.90
15481;DHT22;7842;50.904;6.670;2022-09-01T06:23:58;24.80;99.90
15481;DHT22;7842;50.904;6.670;2022-09-01T06:26:30;24.60;99.90
15481;DHT22;7842;50.904;6.670;2022-09-01T06:29:01;24.20;99.90
15481;DHT22;7842;50.904;6.670;2022-09-01T06:31:30;24.00;99.90
15481;DHT22;7842;50.904;6.670;2022-09-01T06:33:59;24.30;99.90
15481;DHT22;7842;50.904;6.670;2022-09-01T06:36:26;24.30;99.90
15481;DHT22;7842;50.904;6.670;2022-09-01T06:38:52;24.00;99.90
15481;DHT22;7842;50.904;6.670;2022-09-01T06:41:20;24.00;99.90
15481;DHT22;7842;50.904;6.670;2022-09-01T06:43:47;23.90;99.90
15481;DHT22;7842;50.904;6.670;2022-09-01T06:46:15;23.40;99.90
15481;DHT22;7842;50.904;6.670;2022-09-01T06:48:40;23.20;99.90
15481;DHT22;7842;50.904;6.670;2022-09-01T06:51:12;22.90;99.90
15481;DHT22;7842;50.904;6.670;2022-09-01T06:53:39;22.60;99.90
15481;DHT22;7842;50.904;6.670;2022-09-01T06:56:06;22.10;99.90
15481;DHT22;7842;50.904;6.670;2022-09-01T06:58:38;21.80;99.90
15481;DHT22;7842;50.904;6.670;2022-09-01T07:01:09;21.40;99.90
15481;DHT22;7842;50.904;6.670;2022-09-01T07:03:45;20.70;99.90
15481;DHT22;7842;50.904;6.670;2022-09-01T07:06:12;20.60;99.90
15481;DHT22;7842;50.904;6.670;2022-09-01T07:08:39;20.50;99.90
15481;DHT22;7842;50.904;6.670;2022-09-01T07:11:08;20.40;99.90
15481;DHT22;7842;50.904;6.670;2022-09-01T07:13:41;20.40;99.90
15481;DHT22;7842;50.904;6.670;2022-09-01T07:16:16;20.40;99.90
15481;DHT22;7842;50.904;6.670;2022-09-01T07:18:44;20.30;99.90
15481;DHT22;7842;50.904;6.670;2022-09-01T07:21:10;20.30;99.90
15481;DHT22;7842;50.904;6.670;2022-09-01T07:23:35;20.40;99.90
15481;DHT22;7842;50.904;6.670;2022-09-01T07:26:05;20.30;99.90
15481;DHT22;7842;50.904;6.670;2022-09-01T07:28:32;20.50;99.90
15481;DHT22;7842;50.904;6.670;2022-09-01T07:30:57;20.60;99.90
15481;DHT22;7842;50.904;6.670;2022-09-01T07:33:25;20.80;99.90
15481;DHT22;7842;50.904;6.670;2022-09-01T07:35:52;21.00;99.90
15481;DHT22;7842;50.904;6.670;2022-09-01T07:38:20;20.90;99.90
15481;DHT22;7842;50.904;6.670;2022-09-01T07:40:46;20.90;99.90
15481;DHT22;7842;50.904;6.670;2022-09-01T07:43:30;20.90;99.90
15481;DHT22;7842;50.904;6.670;2022-09-01T07:45:57;20.80;99.90
15481;DHT22;7842;50.904;6.670;2022-09-01T07:48:25;20.80;99.90
15481;DHT22;7842;50.904;6.670;2022-09-01T07:50:54;20.90;99.90
15481;DHT22;7842;50.904;6.670;2022-09-01T07:53:27;20.90;99.90
15481;DHT22;7842;50.904;6.670;2022-09-01T07:55:57;20.90;99.90
15481;DHT22;7842;50.904;6.670;2022-09-01T07:58:25;20.90;99.90
15481;DHT22;7842;50.904;6.670;2022-09-01T08:00:52;20.80;99.90
15481;DHT22;7842;50.904;6.670;2022-09-01T08:03:22;20.70;99.90
15481;DHT22;7842;50.904;6.670;2022-09-01T08:05:48;21.10;99.90
15481;DHT22;7842;50.904;6.670;2022-09-01T08:08:18;21.30;99.90
15481;DHT22;7842;50.904;6.670;2022-09-01T08:10:44;21.30;99.90
15481;DHT22;7842;50.904;6.670;2022-09-01T08:13:11;21.50;99.90
15481;DHT22;7842;50.904;6.670;2022-09-01T08:15:40;21.70;99.90
15481;DHT22;7842;50.904;6.670;2022-09-01T08:18:06;21.60;99.90
15481;DHT22;7842;50.904;6.670;2022-09-01T08:20:33;21.80;99.90
15481;DHT22;7842;50.904;6.670;2022-09-01T08:23:04;22.00;99.90
15481;DHT22;7842;50.904;6.670;2022-09-01T08:25:32;22.10;99.90
15481;DHT22;7842;50.904;6.670;2022-09-01T08:27:58;22.20;99.90
15481;DHT22;7842;50.904;6.670;2022-09-01T08:30:25;22.20;99.90
15481;DHT22;7842;50.904;6.670;2022-09-01T08:32:52;22.20;99.90
15481;DHT22;7842;50.904;6.670;2022-09-01T08:35:17;22.00;99.90
15481;DHT22;7842;50.904;6.670;2022-09-01T08:37:43;22.10;99.90
15481;DHT22;7842;50.904;6.670;2022-09-01T08:40:13;22.20;99.90
15481;DHT22;7842;50.904;6.670;2022-09-01T08:50:55;22.20;99.90
15481;DHT22;7842;50.904;6.670;2022-09-01T08:53:32;22.30;99.90
15481;DHT22;7842;50.904;6.670;2022-09-01T08:55:58;22.50;99.90
15481;DHT22;7842;50.904;6.670;2022-09-01T08:58:25;22.50;99.90
15481;DHT22;7842;50.904;6.670;2022-09-01T09:00:59;22.60;99.90
15481;DHT22;7842;50.904;6.670;2022-09-01T09:08:57;22.90;99.90
15481;DHT22;7842;50.904;6.670;2022-09-01T09:16:48;23.10;99.90
15481;DHT22;7842;50.904;6.670;2022-09-01T09:19:21;23.20;99.90
15481;DHT22;7842;50.904;6.670;2022-09-01T09:21:50;23.40;99.90
15481;DHT22;7842;50.904;6.670;2022-09-01T09:27:33;23.40;99.90
15481;DHT22;7842;50.904;6.670;2022-09-01T09:30:05;23.00;99.90
15481;DHT22;7842;50.904;6.670;2022-09-01T09:35:32;23.30;99.90
15481;DHT22;7842;50.904;6.670;2022-09-01T09:38:15;23.20;99.90
15481;DHT22;7842;50.904;6.670;2022-09-01T09:41:16;23.10;99.90
15481;DHT22;7842;50.904;6.670;2022-09-01T09:44:04;23.20;99.90
15481;DHT22;7842;50.904;6.670;2022-09-01T09:49:16;23.20;99.90
15481;DHT22;7842;50.904;6.670;2022-09-01T09:51:55;23.20;99.90
15481;DHT22;7842;50.904;6.670;2022-09-01T09:54:30;23.40;99.90
15481;DHT22;7842;50.904;6.670;2022-09-01T09:57:12;23.40;99.90
15481;DHT22;7842;50.904;6.670;2022-09-01T10:00:03;23.30;99.90
15481;DHT22;7842;50.904;6.670;2022-09-01T10:02:38;23.40;99.90
15481;DHT22;7842;50.904;6.670;2022-09-01T10:07:53;23.60;99.90
15481;DHT22;7842;50.904;6.670;2022-09-01T10:10:38;23.70;99.90
15481;DHT22;7842;50.904;6.670;2022-09-01T10:13:09;23.90;99.90
15481;DHT22;7842;50.904;6.670;2022-09-01T10:15:35;23.80;99.90
15481;DHT22;7842;50.904;6.670;2022-09-01T10:18:06;23.80;99.90
15481;DHT22;7842;50.904;6.670;2022-09-01T10:20:33;23.80;99.90
15481;DHT22;7842;50.904;6.670;2022-09-01T10:23:01;23.90;99.90
15481;DHT22;7842;50.904;6.670;2022-09-01T10:25:30;23.90;99.90
15481;DHT22;7842;50.904;6.670;2022-09-01T10:28:05;24.00;99.90
15481;DHT22;7842;50.904;6.670;2022-09-01T10:30:33;24.10;99.90
15481;DHT22;7842;50.904;6.670;2022-09-01T10:33:01;24.00;99.90
15481;DHT22;7842;50.904;6.670;2022-09-01T10:35:32;24.00;99.90
15481;DHT22;7842;50.904;6.670;2022-09-01T10:38:02;24.00;99.90
15481;DHT22;7842;50.904;6.670;2022-09-01T10:40:43;23.80;99.90
15481;DHT22;7842;50.904;6.670;2022-09-01T10:43:39;23.90;99.90
15481;DHT22;7842;50.904;6.670;2022-09-01T10:48:49;24.10;99.90
15481;DHT22;7842;50.904;6.670;2022-09-01T10:53:43;24.00;99.90
15481;DHT22;7842;50.904;6.670;2022-09-01T10:58:59;24.30;99.90
15481;DHT22;7842;50.904;6.670;2022-09-01T11:04:07;24.40;99.90
15481;DHT22;7842;50.904;6.670;2022-09-01T11:06:54;24.50;99.90
15481;DHT22;7842;50.904;6.670;2022-09-01T11:09:42;24.30;99.90
15481;DHT22;7842;50.904;6.670;2022-09-01T11:14:58;24.70;99.90
15481;DHT22;7842;50.904;6.670;2022-09-01T11:17:35;24.80;99.90
15481;DHT22;7842;50.904;6.670;2022-09-01T11:20:08;24.80;99.90
15481;DHT22;7842;50.904;6.670;2022-09-01T11:30:40;24.00;99.90
15481;DHT22;7842;50.904;6.670;2022-09-01T11:33:33;23.90;99.90
15481;DHT22;7842;50.904;6.670;2022-09-01T11:36:06;24.20;99.90
15481;DHT22;7842;50.904;6.670;2022-09-01T11:41:44;24.60;99.90
15481;DHT22;7842;50.904;6.670;2022-09-01T11:44:22;24.50;99.90
15481;DHT22;7842;50.904;6.670;2022-09-01T11:46:50;24.60;99.90
15481;DHT22;7842;50.904;6.670;2022-09-01T11:54:23;24.40;99.90
15481;DHT22;7842;50.904;6.670;2022-09-01T11:56:49;24.40;99.90
15481;DHT22;7842;50.904;6.670;2022-09-01T11:59:30;24.60;99.90
15481;DHT22;7842;50.904;6.670;2022-09-01T12:01:57;24.60;99.90
15481;DHT22;7842;50.904;6.670;2022-09-01T12:04:25;24.80;99.90
15481;DHT22;7842;50.904;6.670;2022-09-01T12:06:54;25.20;99.90
15481;DHT22;7842;50.904;6.670;2022-09-01T12:09:21;25.30;99.90
15481;DHT22;7842;50.904;6.670;2022-09-01T12:11:47;25.30;99.90
15481;DHT22;7842;50.904;6.670;2022-09-01T12:14:20;25.40;99.90
15481;DHT22;7842;50.904;6.670;2022-09-01T12:17:05;25.20;99.90
15481;DHT22;7842;50.904;6.670;2022-09-01T12:19:33;24.90;99.90
15481;DHT22;7842;50.904;6.670;2022-09-01T12:22:06;24.80;99.90
15481;DHT22;7842;50.904;6.670;2022-09-01T12:24:43;24.70;99.90
15481;DHT22;7842;50.904;6.670;2022-09-01T12:27:09;25.00;99.90
15481;DHT22;7842;50.904;6.670;2022-09-01T12:29:39;24.90;99.90
15481;DHT22;7842;50.904;6.670;2022-09-01T12:32:05;24.80;99.90
15481;DHT22;7842;50.904;6.670;2022-09-01T12:34:43;24.80;99.90
15481;DHT22;7842;50.904;6.670;2022-09-01T12:37:29;24.80;99.90
15481;DHT22;7842;50.904;6.670;2022-09-01T12:39:58;24.80;99.90
15481;DHT22;7842;50.904;6.670;2022-09-01T12:42:29;24.70;99.90
15481;DHT22;7842;50.904;6.670;2022-09-01T12:45:04;24.60;99.90
15481;DHT22;7842;50.904;6.670;2022-09-01T12:52:56;24.30;99.90
15481;DHT22;7842;50.904;6.670;2022-09-01T12:55:28;24.30;99.90
15481;DHT22;7842;50.904;6.670;2022-09-01T12:57:59;24.30;99.90
15481;DHT22;7842;50.904;6.670;2022-09-01T13:00:28;24.40;99.90
15481;DHT22;7842;50.904;6.670;2022-09-01T13:03:14;24.70;99.90
15481;DHT22;7842;50.904;6.670;2022-09-01T13:05:45;25.00;99.90
15481;DHT22;7842;50.904;6.670;2022-09-01T13:08:20;25.00;99.90
15481;DHT22;7842;50.904;6.670;2022-09-01T13:13:28;25.10;99.90
15481;DHT22;7842;50.904;6.670;2022-09-01T13:15:57;25.40;99.90
15481;DHT22;7842;50.904;6.670;2022-09-01T13:18:37;25.90;99.90
15481;DHT22;7842;50.904;6.670;2022-09-01T13:21:04;26.30;99.90
15481;DHT22;7842;50.904;6.670;2022-09-01T13:23:30;26.30;99.90
15481;DHT22;7842;50.904;6.670;2022-09-01T13:25:56;26.50;98.80
15481;DHT22;7842;50.904;6.670;2022-09-01T13:28:24;26.60;99.40
15481;DHT22;7842;50.904;6.670;2022-09-01T13:30:57;26.90;98.70
15481;DHT22;7842;50.904;6.670;2022-09-01T13:33:27;26.80;98.00
15481;DHT22;7842;50.904;6.670;2022-09-01T13:35:53;26.70;98.20
15481;DHT22;7842;50.904;6.670;2022-09-01T13:38:19;26.60;98.80
15481;DHT22;7842;50.904;6.670;2022-09-01T13:40:47;26.30;98.20
15481;DHT22;7842;50.904;6.670;2022-09-01T13:43:14;26.00;99.20
15481;DHT22;7842;50.904;6.670;2022-09-01T13:45:40;25.70;99.90
15481;DHT22;7842;50.904;6.670;2022-09-01T13:48:06;25.60;99.90
15481;DHT22;7842;50.904;6.670;2022-09-01T13:50:32;25.40;99.90
15481;DHT22;7842;50.904;6.670;2022-09-01T13:52:58;25.20;99.90
15481;DHT22;7842;50.904;6.670;2022-09-01T13:55:30;25.20;99.90
15481;DHT22;7842;50.904;6.670;2022-09-01T13:57:56;25.10;99.90
15481;DHT22;7842;50.904;6.670;2022-09-01T14:00:29;25.00;99.90
15481;DHT22;7842;50.904;6.670;2022-09-01T14:02:59;24.80;99.90
15481;DHT22;7842;50.904;6.670;2022-09-01T14:05:30;24.80;99.90
15481;DHT22;7842;50.904;6.670;2022-09-01T14:07:56;24.80;99.90
15481;DHT22;7842;50.904;6.670;2022-09-01T14:10:25;24.60;99.90
15481;DHT22;7842;50.904;6.670;2022-09-01T14:12:51;24.60;99.90
15481;DHT22;7842;50.904;6.670;2022-09-01T14:15:18;24.50;99.90
15481;DHT22;7842;50.904;6.670;2022-09-01T14:17:46;24.60;99.90
15481;DHT22;7842;50.904;6.670;2022-09-01T14:20:16;24.90;99.90
15481;DHT22;7842;50.904;6.670;2022-09-01T14:22:42;25.20;99.90
15481;DHT22;7842;50.904;6.670;2022-09-01T14:25:11;25.50;99.90
15481;DHT22;7842;50.904;6.670;2022-09-01T14:27:37;25.90;99.90
15481;DHT22;7842;50.904;6.670;2022-09-01T14:30:05;25.80;99.90
15481;DHT22;7842;50.904;6.670;2022-09-01T14:32:33;25.60;99.90
15481;DHT22;7842;50.904;6.670;2022-09-01T14:34:59;25.30;99.90
15481;DHT22;7842;50.904;6.670;2022-09-01T14:37:25;25.10;99.90
15481;DHT22;7842;50.904;6.670;2022-09-01T14:39:52;24.80;99.90
15481;DHT22;7842;50.904;6.670;2022-09-01T14:42:18;24.70;99.90
15481;DHT22;7842;50.904;6.670;2022-09-01T14:44:45;24.60;99.90
15481;DHT22;7842;50.904;6.670;2022-09-01T14:47:11;24.60;99.90
15481;DHT22;7842;50.904;6.670;2022-09-01T14:49:37;24.80;99.90
15481;DHT22;7842;50.904;6.670;2022-09-01T14:52:04;25.20;99.90
15481;DHT22;7842;50.904;6.670;2022-09-01T14:54:35;25.50;99.90
15481;DHT22;7842;50.904;6.670;2022-09-01T14:57:02;25.80;99.90
15481;DHT22;7842;50.904;6.670;2022-09-01T14:59:28;26.00;99.90
15481;DHT22;7842;50.904;6.670;2022-09-01T15:01:54;26.10;99.90
15481;DHT22;7842;50.904;6.670;2022-09-01T15:04:19;26.20;97.90
15481;DHT22;7842;50.904;6.670;2022-09-01T15:06:45;26.10;96.90
15481;DHT22;7842;50.904;6.670;2022-09-01T15:09:11;25.90;97.50
15481;DHT22;7842;50.904;6.670;2022-09-01T15:11:36;25.60;98.80
15481;DHT22;7842;50.904;6.670;2022-09-01T15:14:03;25.40;99.90
15481;DHT22;7842;50.904;6.670;2022-09-01T15:16:28;25.10;99.90
15481;DHT22;7842;50.904;6.670;2022-09-01T15:18:54;25.00;99.90
15481;DHT22;7842;50.904;6.670;2022-09-01T15:21:30;24.90;99.50
15481;DHT22;7842;50.904;6.670;2022-09-01T15:23:59;24.80;99.30
15481;DHT22;7842;50.904;6.670;2022-09-01T15:26:25;24.90;99.40
15481;DHT22;7842;50.904;6.670;2022-09-01T15:28:50;25.00;99.20
15481;DHT22;7842;50.904;6.670;2022-09-01T15:31:18;25.20;99.70
15481;DHT22;7842;50.904;6.670;2022-09-01T15:33:44;25.30;98.70
15481;DHT22;7842;50.904;6.670;2022-09-01T15:36:17;25.40;99.00
15481;DHT22;7842;50.904;6.670;2022-09-01T15:38:44;25.40;99.40
15481;DHT22;7842;50.904;6.670;2022-09-01T15:41:15;25.40;98.90
15481;DHT22;7842;50.904;6.670;2022-09-01T15:43:41;25.30;99.00
15481;DHT22;7842;50.904;6.670;2022-09-01T15:46:07;25.40;99.50
15481;DHT22;7842;50.904;6.670;2022-09-01T15:48:32;25.50;99.00
15481;DHT22;7842;50.904;6.670;2022-09-01T15:53:47;25.50;99.10
15481;DHT22;7842;50.904;6.670;2022-09-01T15:56:14;25.50;99.00
15481;DHT22;7842;50.904;6.670;2022-09-01T15:58:42;25.60;98.70
15481;DHT22;7842;50.904;6.670;2022-09-01T16:01:08;25.60;99.20
15481;DHT22;7842;50.904;6.670;2022-09-01T16:03:33;25.70;99.50
15481;DHT22;7842;50.904;6.670;2022-09-01T16:06:00;25.80;99.20
15481;DHT22;7842;50.904;6.670;2022-09-01T16:08:26;25.80;99.00
15481;DHT22;7842;50.904;6.670;2022-09-01T16:10:52;25.60;98.70
15481;DHT22;7842;50.904;6.670;2022-09-01T16:13:19;25.60;98.70
15481;DHT22;7842;50.904;6.670;2022-09-01T16:18:55;25.80;98.00
15481;DHT22;7842;50.904;6.670;2022-09-01T16:24:13;26.00;97.00
15481;DHT22;7842;50.904;6.670;2022-09-01T16:26:39;25.90;96.90
15481;DHT22;7842;50.904;6.670;2022-09-01T16:29:13;25.90;97.10
15481;DHT22;7842;50.904;6.670;2022-09-01T16:31:41;25.80;96.70
15481;DHT22;7842;50.904;6.670;2022-09-01T16:34:15;25.60;96.00
15481;DHT22;7842;50.904;6.670;2022-09-01T16:37:34;25.50;96.10
15481;DHT22;7842;50.904;6.670;2022-09-01T16:39:49;25.60;96.00
15481;DHT22;7842;50.904;6.670;2022-09-01T16:42:37;25.60;95.30
15481;DHT22;7842;50.904;6.670;2022-09-01T16:48:24;25.50;94.40
15481;DHT22;7842;50.904;6.670;2022-09-01T16:50:59;25.50;94.10
15481;DHT22;7842;50.904;6.670;2022-09-01T16:56:22;25.50;95.10
15481;DHT22;7842;50.904;6.670;2022-09-01T16:59:36;25.50;95.00
15481;DHT22;7842;50.904;6.670;2022-09-01T17:02:50;25.50;95.10
15481;DHT22;7842;50.904;6.670;2022-09-01T17:05:11;25.40;95.50
15481;DHT22;7842;50.904;6.670;2022-09-01T17:07:50;25.40;95.30
15481;DHT22;7842;50.904;6.670;2022-09-01T17:10:46;25.30;95.50
15481;DHT22;7842;50.904;6.670;2022-09-01T17:16:14;25.40;95.60
15481;DHT22;7842;50.904;6.670;2022-09-01T17:18:50;25.40;96.00
15481;DHT22;7842;50.904;6.670;2022-09-01T17:21:30;25.30;95.80
15481;DHT22;7842;50.904;6.670;2022-09-01T17:24:32;25.20;96.10
15481;DHT22;7842;50.904;6.670;2022-09-01T17:27:02;25.00;96.00
15481;DHT22;7842;50.904;6.670;2022-09-01T17:29:46;24.90;95.00